Terminal Aerodrome Forecast
Issued by NWS Grand Forks, ND

Home | Current Version | Previous Version | Graphics & Text | Print | Product List | Glossary On
Versions: 1 2 3 4 5 6 7 8 9 10 11 12 13 14
000
FTUS43 KFGF 240400 AAB
TAFFAR
TAF AMD
KFAR 240411Z 2404/2424 34012KT P6SM OVC009
      TEMPO 2404/2406 2SM -SN
     FM241200 VRB06KT P6SM OVC006
     FM241800 21007KT P6SM OVC016=

USA.gov is the U.S. government's official web portal to all federal, state and local government web resources and services.